Time;durP1;ratioP1;P1;durP2;ratioP2;P2;SDS_P1;SDS_P2;PMS_P1;PMS_P2;Temp;Humidity;BMP_temperature;BMP_pressure;BME280_temperature;BME280_humidity;BME280_pressure;Samples;Min_cycle;Max_cycle;Signal;HPM_P1;HPM_P2
2024/02/24 07:32:57;;;;;;;2.70;1.80;;;;;;;;;;2084076;28;20555;-64
2024/02/24 07:48:48;;;;;;;2.25;1.10;;;;;;;;;;2084800;28;20590;-64
2024/02/24 07:49:49;;;;;;;3.08;1.42;;;;;;;;;;2077259;28;20197;-64
2024/02/24 08:03:45;;;;;;;4.93;2.72;;;;;;;;;;2082405;28;20572;-65
2024/02/24 08:04:46;;;;;;;6.25;2.80;;;;;;;;;;2077990;28;20196;-67
2024/02/24 08:05:47;;;;;;;5.45;3.00;;;;;;;;;;2071740;28;20197;-65
2024/02/24 08:06:49;;;;;;;3.70;1.63;;;;;;;;;;2072093;28;20198;-65
2024/02/24 08:07:50;;;;;;;1.52;0.90;;;;;;;;;;2070623;28;20220;-65
2024/02/24 08:08:52;;;;;;;1.98;0.80;;;;;;;;;;2070965;28;20203;-64
2024/02/24 08:09:54;;;;;;;1.63;0.80;;;;;;;;;;2068418;28;20200;-65
2024/02/24 08:10:56;;;;;;;1.73;0.90;;;;;;;;;;2065074;28;20259;-65
2024/02/24 08:12:00;;;;;;;1.73;0.90;;;;;;;;;;2062234;28;20286;-65
2024/02/24 08:13:02;;;;;;;3.15;1.00;;;;;;;;;;2064176;28;20257;-65
2024/02/24 08:14:03;;;;;;;1.90;0.80;;;;;;;;;;2065998;28;20222;-65
2024/02/24 08:15:05;;;;;;;2.35;0.75;;;;;;;;;;2063448;28;20238;-65
2024/02/24 08:16:06;;;;;;;1.10;0.70;;;;;;;;;;2060269;28;20198;-65
2024/02/24 08:17:08;;;;;;;1.70;0.90;;;;;;;;;;2064780;28;20561;-65
2024/02/24 08:18:09;;;;;;;2.67;1.00;;;;;;;;;;2066776;28;20193;-65
2024/02/24 08:19:11;;;;;;;1.85;0.90;;;;;;;;;;2063133;28;20519;-65
2024/02/24 08:20:13;;;;;;;3.97;1.00;;;;;;;;;;2068090;28;20228;-66
2024/02/24 08:21:14;;;;;;;1.80;0.80;;;;;;;;;;2072470;28;20202;-65
2024/02/24 08:22:16;;;;;;;2.47;0.90;;;;;;;;;;2071225;28;20285;-66
2024/02/24 08:23:17;;;;;;;4.00;0.80;;;;;;;;;;2072500;28;20296;-66
2024/02/24 08:24:19;;;;;;;1.88;0.90;;;;;;;;;;2071808;28;20605;-66
2024/02/24 08:25:21;;;;;;;3.30;0.85;;;;;;;;;;2076020;28;20263;-65
2024/02/24 08:26:22;;;;;;;2.13;0.90;;;;;;;;;;2082081;28;20316;-66
2024/02/24 08:27:24;;;;;;;1.63;0.80;;;;;;;;;;2068731;28;20244;-66
2024/02/24 08:28:26;;;;;;;1.38;0.77;;;;;;;;;;2071987;28;20229;-66
2024/02/24 08:29:27;;;;;;;1.40;0.60;;;;;;;;;;2070255;28;20207;-65
2024/02/24 08:30:28;;;;;;;2.45;0.90;;;;;;;;;;2065369;28;20305;-66
2024/02/24 08:31:30;;;;;;;2.38;0.70;;;;;;;;;;2073035;28;20867;-66
2024/02/24 08:32:31;;;;;;;1.20;0.70;;;;;;;;;;2072650;28;20205;-66
2024/02/24 08:33:33;;;;;;;1.60;0.80;;;;;;;;;;2073441;28;20208;-66
2024/02/24 08:34:34;;;;;;;1.30;0.70;;;;;;;;;;2071974;28;20200;-65
2024/02/24 08:35:36;;;;;;;1.92;0.75;;;;;;;;;;2068448;28;20292;-66
2024/02/24 08:36:37;;;;;;;3.25;0.80;;;;;;;;;;2072151;28;20284;-65
2024/02/24 08:37:40;;;;;;;1.95;0.70;;;;;;;;;;2072182;28;20228;-65
2024/02/24 08:38:43;;;;;;;1.60;0.80;;;;;;;;;;2072942;28;20193;-65
2024/02/24 08:39:44;;;;;;;3.05;0.70;;;;;;;;;;2070893;28;20898;-64
2024/02/24 08:40:46;;;;;;;5.28;3.55;;;;;;;;;;2073797;28;20197;-67
2024/02/24 08:41:47;;;;;;;13.05;5.35;;;;;;;;;;2072390;28;20206;-64
2024/02/24 08:42:48;;;;;;;7.88;2.65;;;;;;;;;;2073592;28;20284;-67
2024/02/24 08:43:50;;;;;;;5.15;1.45;;;;;;;;;;2071906;28;20213;-65
2024/02/24 08:44:51;;;;;;;1.85;0.70;;;;;;;;;;2066413;28;20654;-64
2024/02/24 08:45:52;;;;;;;1.73;0.93;;;;;;;;;;2070852;28;20197;-65
2024/02/24 08:46:54;;;;;;;1.50;0.70;;;;;;;;;;2072647;28;20189;-65
2024/02/24 08:47:55;;;;;;;2.15;1.00;;;;;;;;;;2071022;28;20199;-65
2024/02/24 08:48:57;;;;;;;1.20;0.60;;;;;;;;;;2069138;28;20194;-65
2024/02/24 08:49:58;;;;;;;1.50;0.65;;;;;;;;;;2065662;28;20234;-65
2024/02/24 08:51:00;;;;;;;1.55;0.80;;;;;;;;;;2064833;28;20187;-65
2024/02/24 08:52:02;;;;;;;1.70;0.60;;;;;;;;;;2070234;28;20237;-65
2024/02/24 08:53:04;;;;;;;2.00;0.80;;;;;;;;;;2069820;28;20199;-66
2024/02/24 08:54:05;;;;;;;1.52;0.70;;;;;;;;;;2068777;28;20255;-65
2024/02/24 08:55:06;;;;;;;1.80;0.60;;;;;;;;;;2067020;28;20224;-65
2024/02/24 08:56:08;;;;;;;2.13;0.60;;;;;;;;;;2071753;28;20204;-65
2024/02/24 08:57:09;;;;;;;1.50;0.73;;;;;;;;;;2071101;28;20206;-66
2024/02/24 08:58:11;;;;;;;3.10;0.75;;;;;;;;;;2072182;28;20186;-66
2024/02/24 08:59:12;;;;;;;4.50;0.60;;;;;;;;;;2071560;28;20218;-66
2024/02/24 09:00:14;;;;;;;2.15;0.70;;;;;;;;;;2070764;28;20308;-65
2024/02/24 09:01:16;;;;;;;1.33;0.70;;;;;;;;;;2070164;28;20218;-65
2024/02/24 09:02:19;;;;;;;1.70;0.80;;;;;;;;;;2068241;28;20234;-65
2024/02/24 09:03:20;;;;;;;1.50;0.80;;;;;;;;;;2068639;28;20652;-67
2024/02/24 09:04:24;;;;;;;1.30;0.70;;;;;;;;;;2068860;28;20783;-65
2024/02/24 09:05:25;;;;;;;1.95;0.90;;;;;;;;;;2068565;28;20217;-66
2024/02/24 09:06:28;;;;;;;1.83;0.80;;;;;;;;;;2074464;28;20251;-65
2024/02/24 09:07:29;;;;;;;1.30;0.63;;;;;;;;;;2074610;28;20272;-66
2024/02/24 09:08:31;;;;;;;2.05;0.90;;;;;;;;;;2074150;28;20990;-60
2024/02/24 09:09:33;;;;;;;1.42;0.75;;;;;;;;;;2073299;28;20284;-61
2024/02/24 09:10:35;;;;;;;3.28;0.70;;;;;;;;;;2067639;28;20218;-60
2024/02/24 09:11:36;;;;;;;3.25;0.60;;;;;;;;;;2069368;28;20215;-62
2024/02/24 09:12:38;;;;;;;1.40;0.70;;;;;;;;;;2068348;28;20297;-61
2024/02/24 09:13:39;;;;;;;2.00;0.68;;;;;;;;;;2072070;28;20681;-61
2024/02/24 09:14:41;;;;;;;1.40;0.70;;;;;;;;;;2071949;28;20191;-61
2024/02/24 09:15:42;;;;;;;1.00;0.50;;;;;;;;;;2058761;28;20234;-61
2024/02/24 09:16:44;;;;;;;2.58;0.70;;;;;;;;;;2059512;28;20202;-61
2024/02/24 09:17:45;;;;;;;4.70;0.77;;;;;;;;;;2058572;28;20238;-61
2024/02/24 09:18:46;;;;;;;1.30;0.60;;;;;;;;;;2067803;28;20198;-61
2024/02/24 09:19:48;;;;;;;1.40;0.57;;;;;;;;;;2067087;28;20194;-60
2024/02/24 09:20:49;;;;;;;2.35;0.70;;;;;;;;;;2066766;28;20194;-60
2024/02/24 09:21:51;;;;;;;1.45;0.70;;;;;;;;;;2067415;28;20706;-60
2024/02/24 09:22:52;;;;;;;1.10;0.60;;;;;;;;;;2069781;28;20205;-61
2024/02/24 09:23:54;;;;;;;1.30;0.70;;;;;;;;;;2065548;28;20577;-59
2024/02/24 09:24:55;;;;;;;1.10;0.60;;;;;;;;;;2061655;28;20540;-61
2024/02/24 09:25:57;;;;;;;1.40;0.70;;;;;;;;;;2060001;28;20202;-61
2024/02/24 09:26:59;;;;;;;1.77;0.80;;;;;;;;;;2060368;28;20507;-61
2024/02/24 09:28:00;;;;;;;2.38;0.75;;;;;;;;;;2061409;28;20209;-61
2024/02/24 09:29:01;;;;;;;1.75;0.80;;;;;;;;;;2056725;28;20190;-61
2024/02/24 09:30:03;;;;;;;8.70;3.92;;;;;;;;;;2060432;28;20803;-59
2024/02/24 09:31:04;;;;;;;7.90;4.22;;;;;;;;;;2060408;28;20287;-61
2024/02/24 09:32:06;;;;;;;15.75;6.80;;;;;;;;;;2060241;28;20208;-61
2024/02/24 09:33:07;;;;;;;1.88;0.90;;;;;;;;;;2059171;28;20199;-61
2024/02/24 09:34:09;;;;;;;3.05;0.60;;;;;;;;;;2058898;28;20205;-60
2024/02/24 09:35:11;;;;;;;1.80;0.57;;;;;;;;;;2050786;28;20292;-61
2024/02/24 09:36:13;;;;;;;1.10;0.50;;;;;;;;;;2051884;28;20293;-61
2024/02/24 09:37:14;;;;;;;2.00;0.70;;;;;;;;;;2053861;28;20300;-60
2024/02/24 09:38:16;;;;;;;1.30;0.60;;;;;;;;;;2059188;28;20233;-61
2024/02/24 09:39:17;;;;;;;1.00;0.50;;;;;;;;;;2059332;28;20200;-61
2024/02/24 09:40:18;;;;;;;1.65;0.60;;;;;;;;;;2057554;28;20874;-61
2024/02/24 09:41:20;;;;;;;1.30;0.70;;;;;;;;;;2058013;28;20249;-60
2024/02/24 09:42:27;;;;;;;1.90;0.60;;;;;;;;;;2057450;28;20198;-61
2024/02/24 09:43:29;;;;;;;2.90;0.80;;;;;;;;;;2058486;28;20202;-61
2024/02/24 09:44:30;;;;;;;1.65;1.02;;;;;;;;;;2058015;28;20227;-60
2024/02/24 09:45:32;;;;;;;1.10;0.55;;;;;;;;;;2056729;28;20272;-61
2024/02/24 09:46:34;;;;;;;1.42;0.60;;;;;;;;;;2058775;28;20199;-61
2024/02/24 09:47:39;;;;;;;1.20;0.60;;;;;;;;;;2057734;28;20190;-60
2024/02/24 09:48:42;;;;;;;1.10;0.55;;;;;;;;;;2057794;28;20390;-61
2024/02/24 09:49:43;;;;;;;1.65;0.60;;;;;;;;;;2056103;28;20286;-61
2024/02/24 09:50:45;;;;;;;2.17;0.70;;;;;;;;;;2055975;28;20702;-61
2024/02/24 09:51:48;;;;;;;1.80;0.50;;;;;;;;;;2057063;28;20212;-61
2024/02/24 09:52:49;;;;;;;1.20;0.60;;;;;;;;;;2055226;28;20268;-62
2024/02/24 09:53:50;;;;;;;1.10;0.60;;;;;;;;;;2055858;28;20218;-61
2024/02/24 09:54:52;;;;;;;1.10;0.50;;;;;;;;;;2052723;28;20198;-62
2024/02/24 09:55:53;;;;;;;1.00;0.55;;;;;;;;;;2056703;28;20199;-61
2024/02/24 09:56:55;;;;;;;1.42;0.60;;;;;;;;;;2058169;28;20190;-60
2024/02/24 09:57:57;;;;;;;1.42;0.50;;;;;;;;;;2057853;28;20203;-61
2024/02/24 09:58:58;;;;;;;1.55;0.60;;;;;;;;;;2059201;28;20255;-61
2024/02/24 10:00:00;;;;;;;2.85;0.50;;;;;;;;;;2055874;28;20227;-60
2024/02/24 10:01:02;;;;;;;2.90;0.75;;;;;;;;;;2058828;28;20192;-60
2024/02/24 10:02:05;;;;;;;1.40;0.50;;;;;;;;;;2059380;28;20719;-61
2024/02/24 10:03:06;;;;;;;1.00;0.50;;;;;;;;;;2052603;28;20318;-61
2024/02/24 10:04:08;;;;;;;1.20;0.50;;;;;;;;;;2059158;28;20198;-60
2024/02/24 10:05:09;;;;;;;1.30;0.60;;;;;;;;;;2066975;28;20258;-61
2024/02/24 10:06:11;;;;;;;1.10;0.50;;;;;;;;;;2064948;28;20665;-61
2024/02/24 10:07:13;;;;;;;1.35;0.70;;;;;;;;;;2063959;28;20194;-61
2024/02/24 10:08:14;;;;;;;2.90;0.60;;;;;;;;;;2065336;28;20199;-61
2024/02/24 10:09:16;;;;;;;2.95;0.80;;;;;;;;;;2064816;28;20274;-61
2024/02/24 10:10:17;;;;;;;2.55;0.90;;;;;;;;;;2061259;28;20223;-61
2024/02/24 10:11:18;;;;;;;1.60;0.70;;;;;;;;;;2056341;28;20283;-61
2024/02/24 10:12:20;;;;;;;2.13;0.70;;;;;;;;;;2055505;28;20203;-61
2024/02/24 10:13:22;;;;;;;1.40;0.60;;;;;;;;;;2055652;28;20201;-61
2024/02/24 10:14:23;;;;;;;1.50;0.60;;;;;;;;;;2058361;28;20205;-61
2024/02/24 10:15:25;;;;;;;2.20;0.80;;;;;;;;;;2055759;28;20219;-62
2024/02/24 10:16:27;;;;;;;1.30;0.60;;;;;;;;;;2060039;28;20309;-62
2024/02/24 10:17:29;;;;;;;3.25;0.65;;;;;;;;;;2058133;28;20206;-61
2024/02/24 10:18:31;;;;;;;1.10;0.60;;;;;;;;;;2054726;28;20289;-61
2024/02/24 10:19:33;;;;;;;2.25;0.57;;;;;;;;;;2058525;28;20199;-62
2024/02/24 10:20:35;;;;;;;1.40;0.60;;;;;;;;;;2049889;28;20705;-66
2024/02/24 10:21:36;;;;;;;1.13;0.60;;;;;;;;;;2052472;28;20771;-67
2024/02/24 10:22:38;;;;;;;1.30;0.60;;;;;;;;;;2052583;28;20231;-67
2024/02/24 10:23:40;;;;;;;2.35;0.60;;;;;;;;;;2054588;28;20199;-66
2024/02/24 10:24:41;;;;;;;3.15;0.80;;;;;;;;;;2053991;28;20290;-68
2024/02/24 10:25:43;;;;;;;1.20;0.65;;;;;;;;;;2055130;28;20356;-67
2024/02/24 10:26:44;;;;;;;2.15;0.60;;;;;;;;;;2050963;28;20211;-67
2024/02/24 10:27:46;;;;;;;2.55;0.70;;;;;;;;;;2053913;28;20209;-67
2024/02/24 10:28:47;;;;;;;1.30;0.50;;;;;;;;;;2054453;28;20198;-67
2024/02/24 10:29:50;;;;;;;6.72;0.70;;;;;;;;;;2054867;28;20194;-65
2024/02/24 10:30:52;;;;;;;1.20;0.50;;;;;;;;;;2054514;28;20197;-67
2024/02/24 10:31:54;;;;;;;1.60;0.80;;;;;;;;;;2058887;28;20237;-65
2024/02/24 10:32:56;;;;;;;2.03;0.80;;;;;;;;;;2057894;28;20215;-65
2024/02/24 10:33:59;;;;;;;2.20;0.77;;;;;;;;;;2064339;28;20208;-66
2024/02/24 10:35:02;;;;;;;1.90;0.60;;;;;;;;;;2061089;28;20191;-65
2024/02/24 10:36:05;;;;;;;1.23;0.68;;;;;;;;;;2066270;28;20210;-66
2024/02/24 10:37:07;;;;;;;2.10;1.05;;;;;;;;;;2078567;28;20198;-65
2024/02/24 10:38:12;;;;;;;7.38;0.70;;;;;;;;;;2078620;28;20573;-66
2024/02/24 10:39:34;;;;;;;2.15;0.75;;;;;;;;;;2063833;28;20237;-66
2024/02/24 10:40:37;;;;;;;3.60;0.60;;;;;;;;;;2055382;28;20262;-66
2024/02/24 10:41:38;;;;;;;1.40;0.52;;;;;;;;;;2053550;28;20211;-66
2024/02/24 10:42:40;;;;;;;3.78;0.90;;;;;;;;;;2058980;28;20198;-66
2024/02/24 10:43:42;;;;;;;3.40;0.73;;;;;;;;;;2054191;28;20201;-61
2024/02/24 10:44:44;;;;;;;4.90;0.73;;;;;;;;;;2061814;28;20209;-61
2024/02/24 10:45:45;;;;;;;2.35;0.80;;;;;;;;;;2064184;28;20209;-61
2024/02/24 10:46:47;;;;;;;3.70;0.63;;;;;;;;;;2056995;28;20207;-62
2024/02/24 10:47:48;;;;;;;1.20;0.60;;;;;;;;;;2056011;28;20202;-61
2024/02/24 10:48:53;;;;;;;2.40;0.70;;;;;;;;;;2057809;28;20228;-61
2024/02/24 10:49:54;;;;;;;1.83;0.60;;;;;;;;;;2054762;28;20233;-61
2024/02/24 10:50:56;;;;;;;3.17;1.10;;;;;;;;;;2058048;28;20782;-61
2024/02/24 10:51:58;;;;;;;2.47;0.80;;;;;;;;;;2056068;28;20222;-61
2024/02/24 10:53:00;;;;;;;2.53;1.05;;;;;;;;;;2055488;28;20219;-61
2024/02/24 10:54:07;;;;;;;1.55;0.70;;;;;;;;;;2055569;28;20721;-61
2024/02/24 10:55:09;;;;;;;4.00;0.80;;;;;;;;;;2054631;28;20215;-61
2024/02/24 10:56:10;;;;;;;1.20;0.60;;;;;;;;;;2060243;28;20195;-61
2024/02/24 10:57:14;;;;;;;2.45;1.02;;;;;;;;;;2058544;28;20195;-61
2024/02/24 10:58:19;;;;;;;1.60;0.60;;;;;;;;;;2050778;28;20797;-61
2024/02/24 10:59:26;;;;;;;2.15;0.60;;;;;;;;;;2056011;28;20192;-61
2024/02/24 11:00:36;;;;;;;2.67;0.80;;;;;;;;;;2054873;28;20214;-62
2024/02/24 11:01:46;;;;;;;1.30;0.57;;;;;;;;;;2057479;28;20250;-61
2024/02/24 11:02:48;;;;;;;1.17;0.50;;;;;;;;;;2057534;28;20192;-61
2024/02/24 11:03:50;;;;;;;1.67;0.50;;;;;;;;;;2061196;28;20234;-61
2024/02/24 11:04:52;;;;;;;1.60;0.60;;;;;;;;;;2055288;28;20689;-61
2024/02/24 11:05:54;;;;;;;2.60;1.00;;;;;;;;;;2055492;28;20246;-61
2024/02/24 11:06:57;;;;;;;1.63;0.60;;;;;;;;;;2063799;28;20203;-61
2024/02/24 11:08:00;;;;;;;1.35;0.57;;;;;;;;;;2067804;28;20201;-61
2024/02/24 11:09:03;;;;;;;1.88;0.60;;;;;;;;;;2059519;28;20702;-61
2024/02/24 11:10:13;;;;;;;1.67;0.65;;;;;;;;;;2056219;28;20836;-61
2024/02/24 11:11:14;;;;;;;6.35;0.60;;;;;;;;;;2059200;28;20223;-61
2024/02/24 11:12:19;;;;;;;1.73;0.60;;;;;;;;;;2057184;28;20716;-62
2024/02/24 11:13:21;;;;;;;3.03;0.80;;;;;;;;;;2056691;28;20706;-61
2024/02/24 11:14:22;;;;;;;1.20;0.60;;;;;;;;;;2054537;28;20248;-61
2024/02/24 11:15:24;;;;;;;1.30;0.60;;;;;;;;;;2052827;28;20624;-61
2024/02/24 11:16:25;;;;;;;3.67;0.70;;;;;;;;;;2060571;28;20329;-61
2024/02/24 11:17:44;;;;;;;2.00;0.70;;;;;;;;;;2056714;28;20226;-61
2024/02/24 11:18:48;;;;;;;1.60;0.60;;;;;;;;;;2055850;28;20234;-61
2024/02/24 11:19:50;;;;;;;1.65;0.50;;;;;;;;;;2051833;28;20238;-61
2024/02/24 11:20:52;;;;;;;3.30;0.88;;;;;;;;;;2053402;28;20208;-61
2024/02/24 11:22:01;;;;;;;1.60;0.70;;;;;;;;;;2053764;28;20254;-61
2024/02/24 11:23:21;;;;;;;2.50;0.68;;;;;;;;;;2053375;28;20596;-61
2024/02/24 11:24:28;;;;;;;1.70;0.80;;;;;;;;;;2061160;28;20286;-61
2024/02/24 11:25:30;;;;;;;1.63;0.65;;;;;;;;;;2060829;28;20275;-61
2024/02/24 11:26:33;;;;;;;3.35;0.60;;;;;;;;;;2061033;28;20314;-61
2024/02/24 11:27:36;;;;;;;2.83;0.63;;;;;;;;;;2057918;28;20261;-66
2024/02/24 11:28:41;;;;;;;1.85;0.70;;;;;;;;;;2057313;28;20246;-66
2024/02/24 11:29:43;;;;;;;1.00;0.50;;;;;;;;;;2057598;28;20198;-66
2024/02/24 11:30:45;;;;;;;1.30;0.60;;;;;;;;;;2056004;28;20544;-66
2024/02/24 11:31:46;;;;;;;1.73;0.93;;;;;;;;;;2058246;28;20210;-61
2024/02/24 11:32:50;;;;;;;1.60;0.70;;;;;;;;;;2058759;28;20214;-61
2024/02/24 11:34:01;;;;;;;1.58;0.68;;;;;;;;;;2056183;28;20329;-60
2024/02/24 11:35:03;;;;;;;5.25;0.73;;;;;;;;;;2059262;28;20834;-60
2024/02/24 11:36:05;;;;;;;1.73;0.60;;;;;;;;;;2059270;28;20244;-61
2024/02/24 11:37:07;;;;;;;1.20;0.60;;;;;;;;;;2059627;28;20680;-60
2024/02/24 11:38:08;;;;;;;1.77;0.70;;;;;;;;;;2058237;28;20196;-61
2024/02/24 11:39:11;;;;;;;3.70;0.70;;;;;;;;;;2055304;28;20254;-61
2024/02/24 11:40:14;;;;;;;1.65;0.70;;;;;;;;;;2056505;28;20739;-60
2024/02/24 11:41:16;;;;;;;1.30;0.60;;;;;;;;;;2059232;28;20209;-61
2024/02/24 11:42:20;;;;;;;1.30;0.70;;;;;;;;;;2058856;28;20205;-61
2024/02/24 11:43:21;;;;;;;2.97;0.57;;;;;;;;;;2057732;28;20206;-60
2024/02/24 11:44:23;;;;;;;2.40;0.80;;;;;;;;;;2058020;28;20337;-67
2024/02/24 11:45:24;;;;;;;3.75;0.80;;;;;;;;;;2054234;28;20227;-68
2024/02/24 11:46:26;;;;;;;3.15;0.90;;;;;;;;;;2053462;28;20207;-67
2024/02/24 11:47:27;;;;;;;3.90;0.93;;;;;;;;;;2055926;28;20248;-66
2024/02/24 11:48:30;;;;;;;4.60;1.00;;;;;;;;;;2057445;28;20193;-66
2024/02/24 11:49:32;;;;;;;2.63;0.70;;;;;;;;;;2061494;28;20202;-66
2024/02/24 11:50:33;;;;;;;2.55;0.88;;;;;;;;;;2055661;28;20572;-66
2024/02/24 11:51:35;;;;;;;2.90;1.10;;;;;;;;;;2054208;28;20200;-67
2024/02/24 11:52:36;;;;;;;4.88;1.35;;;;;;;;;;2055976;28;20437;-66
2024/02/24 11:53:38;;;;;;;1.40;0.80;;;;;;;;;;2057900;28;20205;-66
2024/02/24 11:54:40;;;;;;;13.23;6.72;;;;;;;;;;2058115;28;20195;-65
2024/02/24 11:55:42;;;;;;;26.83;14.20;;;;;;;;;;2059031;28;20225;-65
2024/02/24 11:56:43;;;;;;;3.65;2.00;;;;;;;;;;2059915;28;20246;-66
2024/02/24 11:57:45;;;;;;;2.90;0.80;;;;;;;;;;2057921;28;20202;-66
2024/02/24 11:58:47;;;;;;;1.30;0.60;;;;;;;;;;2058852;28;20200;-66
2024/02/24 11:59:48;;;;;;;1.67;0.70;;;;;;;;;;2056656;28;20199;-66
2024/02/24 12:00:50;;;;;;;1.88;0.65;;;;;;;;;;2058134;28;20198;-66
2024/02/24 12:01:51;;;;;;;2.65;0.63;;;;;;;;;;2058514;28;20756;-66
2024/02/24 12:02:55;;;;;;;2.45;0.50;;;;;;;;;;2056000;28;20203;-66
2024/02/24 12:04:01;;;;;;;1.00;0.52;;;;;;;;;;2054852;28;20205;-66
2024/02/24 12:05:15;;;;;;;10.30;0.70;;;;;;;;;;2051049;28;20241;-66
2024/02/24 12:06:17;;;;;;;1.75;0.70;;;;;;;;;;2052682;28;20203;-66
2024/02/24 12:07:19;;;;;;;1.48;0.70;;;;;;;;;;2053532;28;20293;-66
2024/02/24 12:08:21;;;;;;;2.65;0.60;;;;;;;;;;2055561;28;20194;-66
2024/02/24 12:09:23;;;;;;;3.15;0.70;;;;;;;;;;2057080;28;20309;-66
2024/02/24 12:10:24;;;;;;;1.10;0.50;;;;;;;;;;2052029;28;20214;-66
2024/02/24 12:11:26;;;;;;;2.45;0.70;;;;;;;;;;2050700;28;20242;-67
2024/02/24 12:12:28;;;;;;;1.30;0.50;;;;;;;;;;2057858;28;20294;-66
2024/02/24 12:13:29;;;;;;;1.63;0.70;;;;;;;;;;2057924;28;20268;-66
2024/02/24 12:14:31;;;;;;;1.60;0.65;;;;;;;;;;2057276;28;20198;-66
2024/02/24 12:15:37;;;;;;;1.83;0.88;;;;;;;;;;2056254;28;20226;-66
2024/02/24 12:16:40;;;;;;;3.20;0.80;;;;;;;;;;2054105;28;20623;-67
2024/02/24 12:17:43;;;;;;;2.47;0.85;;;;;;;;;;2054024;28;20671;-66
2024/02/24 12:18:45;;;;;;;1.75;0.90;;;;;;;;;;2057441;28;20206;-66
2024/02/24 12:19:47;;;;;;;2.00;0.73;;;;;;;;;;2054399;28;20233;-65
2024/02/24 12:20:48;;;;;;;1.65;0.77;;;;;;;;;;2059320;28;20314;-66
2024/02/24 12:21:50;;;;;;;4.53;1.10;;;;;;;;;;2056856;28;20209;-66
2024/02/24 12:22:52;;;;;;;1.20;0.52;;;;;;;;;;2056754;28;20665;-66
2024/02/24 12:23:55;;;;;;;1.33;0.70;;;;;;;;;;2054792;28;20249;-66
2024/02/24 12:25:10;;;;;;;1.60;0.68;;;;;;;;;;2054795;28;20210;-66
2024/02/24 12:26:12;;;;;;;1.20;0.60;;;;;;;;;;2055232;28;20199;-66
2024/02/24 12:27:14;;;;;;;1.17;0.65;;;;;;;;;;2059604;28;20685;-66
2024/02/24 12:28:16;;;;;;;3.00;1.00;;;;;;;;;;2057322;28;20199;-66
2024/02/24 12:29:17;;;;;;;1.50;0.70;;;;;;;;;;2054665;28;20204;-64
2024/02/24 12:30:19;;;;;;;2.00;0.60;;;;;;;;;;2054585;28;20222;-65
2024/02/24 12:31:20;;;;;;;2.35;0.60;;;;;;;;;;2053774;28;20497;-71
2024/02/24 12:32:22;;;;;;;1.20;0.60;;;;;;;;;;2054354;28;20199;-70
2024/02/24 12:33:23;;;;;;;1.30;0.70;;;;;;;;;;2054695;28;20222;-70
2024/02/24 12:34:25;;;;;;;1.30;0.60;;;;;;;;;;2056798;28;20190;-70
2024/02/24 12:35:26;;;;;;;1.52;0.70;;;;;;;;;;2053432;28;20676;-70
2024/02/24 12:36:31;;;;;;;1.15;0.60;;;;;;;;;;2053475;28;20200;-70
2024/02/24 12:37:36;;;;;;;2.95;0.90;;;;;;;;;;2049903;28;20207;-70
2024/02/24 12:38:38;;;;;;;2.85;1.40;;;;;;;;;;2051262;28;20244;-70
2024/02/24 12:39:40;;;;;;;2.08;1.23;;;;;;;;;;2052075;28;20674;-69
2024/02/24 12:40:44;;;;;;;2.55;0.80;;;;;;;;;;2042060;28;20227;-70
2024/02/24 12:41:45;;;;;;;4.78;0.90;;;;;;;;;;2052876;28;20319;-70
2024/02/24 12:42:47;;;;;;;1.65;0.70;;;;;;;;;;2055984;28;20211;-70
2024/02/24 12:43:48;;;;;;;1.75;0.77;;;;;;;;;;2054356;28;20237;-70
2024/02/24 12:44:49;;;;;;;2.65;1.08;;;;;;;;;;2057212;28;20203;-68
2024/02/24 12:45:51;;;;;;;1.83;0.75;;;;;;;;;;2058771;28;20590;-69
2024/02/24 12:46:53;;;;;;;1.48;0.75;;;;;;;;;;2053720;28;20204;-69
2024/02/24 12:47:55;;;;;;;2.03;0.63;;;;;;;;;;2053227;28;20722;-69
2024/02/24 12:48:56;;;;;;;3.22;0.80;;;;;;;;;;2061036;28;20871;-69
2024/02/24 12:49:58;;;;;;;2.08;0.70;;;;;;;;;;2062012;28;20673;-69
2024/02/24 12:51:00;;;;;;;3.35;0.80;;;;;;;;;;2060626;28;20199;-70
2024/02/24 12:52:02;;;;;;;14.35;6.15;;;;;;;;;;2066150;28;20197;-70
2024/02/24 12:53:05;;;;;;;8.10;4.30;;;;;;;;;;2065410;28;20247;-69
2024/02/24 12:54:07;;;;;;;8.30;3.60;;;;;;;;;;2066387;28;20201;-69
2024/02/24 12:55:08;;;;;;;19.42;9.75;;;;;;;;;;2063917;28;20198;-68
2024/02/24 12:56:10;;;;;;;3.00;1.52;;;;;;;;;;2059619;28;20210;-70
2024/02/24 12:57:11;;;;;;;3.20;0.90;;;;;;;;;;2056024;28;20263;-70
2024/02/24 12:58:12;;;;;;;2.42;0.93;;;;;;;;;;2058302;28;20225;-70
2024/02/24 12:59:17;;;;;;;3.95;0.80;;;;;;;;;;2060843;28;20194;-70
2024/02/24 13:00:20;;;;;;;2.00;0.80;;;;;;;;;;2060521;28;20225;-69
2024/02/24 13:01:24;;;;;;;1.77;0.70;;;;;;;;;;2060413;28;20195;-70
2024/02/24 13:02:28;;;;;;;1.63;0.70;;;;;;;;;;2059780;28;20306;-70
2024/02/24 13:03:30;;;;;;;6.15;1.00;;;;;;;;;;2060501;28;20244;-70
2024/02/24 13:04:31;;;;;;;12.27;1.00;;;;;;;;;;2057976;28;20206;-70
2024/02/24 13:05:33;;;;;;;1.92;1.02;;;;;;;;;;2061791;28;20824;-70
2024/02/24 13:06:34;;;;;;;2.95;0.82;;;;;;;;;;2055944;28;20199;-63
2024/02/24 13:07:36;;;;;;;1.90;1.05;;;;;;;;;;2053379;28;20204;-63
2024/02/24 13:08:38;;;;;;;2.92;0.82;;;;;;;;;;2061163;28;20234;-63
2024/02/24 13:09:39;;;;;;;2.10;0.85;;;;;;;;;;2059548;28;20267;-63
2024/02/24 13:10:41;;;;;;;5.45;0.98;;;;;;;;;;2055677;28;20219;-63
2024/02/24 13:11:42;;;;;;;1.77;0.70;;;;;;;;;;2057212;28;20195;-63
2024/02/24 13:12:44;;;;;;;10.65;1.02;;;;;;;;;;2060464;28;20705;-63
2024/02/24 13:13:45;;;;;;;2.35;0.80;;;;;;;;;;2055272;28;20534;-63
2024/02/24 13:14:47;;;;;;;3.22;1.00;;;;;;;;;;2053821;28;20664;-63
2024/02/24 13:15:48;;;;;;;2.10;1.00;;;;;;;;;;2057436;28;20698;-63
2024/02/24 13:16:50;;;;;;;1.80;0.75;;;;;;;;;;2057805;28;20287;-63
2024/02/24 13:17:51;;;;;;;2.33;0.90;;;;;;;;;;2054856;28;20188;-63
2024/02/24 13:18:52;;;;;;;2.05;0.80;;;;;;;;;;2055242;28;20315;-63
2024/02/24 13:19:54;;;;;;;1.85;0.70;;;;;;;;;;2055869;28;20282;-63
2024/02/24 13:20:56;;;;;;;1.45;0.70;;;;;;;;;;2058012;28;20226;-63
2024/02/24 13:21:57;;;;;;;3.47;0.60;;;;;;;;;;2060974;28;20547;-63
2024/02/24 13:22:59;;;;;;;1.38;0.70;;;;;;;;;;2056722;28;20272;-63
2024/02/24 13:24:01;;;;;;;2.28;0.80;;;;;;;;;;2055892;28;20196;-63
2024/02/24 13:25:03;;;;;;;2.40;0.75;;;;;;;;;;2056322;28;20248;-63
2024/02/24 13:26:04;;;;;;;2.08;0.90;;;;;;;;;;2048988;28;20719;-63
2024/02/24 13:27:06;;;;;;;1.40;0.70;;;;;;;;;;2057268;28;20225;-63
2024/02/24 13:28:07;;;;;;;1.95;0.93;;;;;;;;;;2055920;28;20197;-63
2024/02/24 13:29:09;;;;;;;1.52;0.75;;;;;;;;;;2056251;28;20213;-63
2024/02/24 13:30:10;;;;;;;3.65;0.70;;;;;;;;;;2053679;28;20928;-63
2024/02/24 13:31:12;;;;;;;1.95;0.82;;;;;;;;;;2053817;28;20571;-63
2024/02/24 13:32:13;;;;;;;3.15;0.80;;;;;;;;;;2058649;28;20191;-63
2024/02/24 13:33:15;;;;;;;1.10;0.70;;;;;;;;;;2057596;28;20256;-63
2024/02/24 13:34:16;;;;;;;1.38;0.60;;;;;;;;;;2059624;28;20391;-63
2024/02/24 13:35:18;;;;;;;3.20;0.80;;;;;;;;;;2053866;28;20316;-64
2024/02/24 13:36:20;;;;;;;2.65;1.05;;;;;;;;;;2056835;28;20202;-63
2024/02/24 13:37:21;;;;;;;1.40;0.70;;;;;;;;;;2061472;28;20253;-63
2024/02/24 13:38:22;;;;;;;1.15;0.60;;;;;;;;;;2061226;28;20202;-63
2024/02/24 13:39:24;;;;;;;1.73;0.80;;;;;;;;;;2059716;28;20202;-63
2024/02/24 13:40:25;;;;;;;2.58;0.98;;;;;;;;;;2057410;28;20323;-66
2024/02/24 13:41:27;;;;;;;1.55;0.70;;;;;;;;;;2060336;28;20233;-63
2024/02/24 13:42:28;;;;;;;1.90;0.82;;;;;;;;;;2057089;28;20385;-63
2024/02/24 13:43:32;;;;;;;1.83;0.80;;;;;;;;;;2057831;28;20286;-65
2024/02/24 13:44:34;;;;;;;2.58;0.80;;;;;;;;;;2056539;28;20195;-63
2024/02/24 13:45:35;;;;;;;2.38;0.85;;;;;;;;;;2053645;28;20220;-63
2024/02/24 13:46:38;;;;;;;1.80;0.80;;;;;;;;;;2056949;28;20215;-63
2024/02/24 13:47:39;;;;;;;3.03;0.80;;;;;;;;;;2057872;28;20195;-63
2024/02/24 13:48:40;;;;;;;2.53;0.90;;;;;;;;;;2059442;28;20206;-64
2024/02/24 13:49:42;;;;;;;2.30;0.80;;;;;;;;;;2058245;28;20870;-63
2024/02/24 13:50:43;;;;;;;2.15;0.77;;;;;;;;;;2050996;28;20261;-63
2024/02/24 13:51:45;;;;;;;1.60;0.80;;;;;;;;;;2055077;28;21080;-63
2024/02/24 13:52:47;;;;;;;2.00;0.90;;;;;;;;;;2060630;28;20195;-62
2024/02/24 13:53:48;;;;;;;2.50;1.00;;;;;;;;;;2059942;28;20259;-63
2024/02/24 13:54:51;;;;;;;1.63;0.70;;;;;;;;;;2059440;28;20209;-62
2024/02/24 13:55:52;;;;;;;2.20;0.80;;;;;;;;;;2057315;28;20895;-63
2024/02/24 13:56:54;;;;;;;1.85;0.85;;;;;;;;;;2056506;28;20603;-63
2024/02/24 13:57:56;;;;;;;2.22;0.60;;;;;;;;;;2054500;28;20262;-63
2024/02/24 13:59:00;;;;;;;2.20;0.90;;;;;;;;;;2058902;28;20203;-62
2024/02/24 14:00:10;;;;;;;1.10;0.60;;;;;;;;;;2046199;28;20203;-62
2024/02/24 14:01:11;;;;;;;2.88;0.80;;;;;;;;;;2058122;28;20208;-62
2024/02/24 14:02:13;;;;;;;3.30;0.70;;;;;;;;;;2054077;28;20199;-62
2024/02/24 14:03:14;;;;;;;1.83;0.77;;;;;;;;;;2053061;28;20709;-62
2024/02/24 14:04:16;;;;;;;4.43;1.00;;;;;;;;;;2062025;28;20575;-63
2024/02/24 14:05:17;;;;;;;1.67;0.80;;;;;;;;;;2062928;28;20230;-63
2024/02/24 14:06:19;;;;;;;2.67;0.80;;;;;;;;;;2056275;28;20285;-62
2024/02/24 14:07:24;;;;;;;2.65;1.10;;;;;;;;;;2059127;28;20282;-63
2024/02/24 14:08:26;;;;;;;2.88;1.00;;;;;;;;;;2057438;28;20198;-62
2024/02/24 14:09:27;;;;;;;3.40;0.70;;;;;;;;;;2055280;28;20199;-62
2024/02/24 14:10:28;;;;;;;2.03;1.08;;;;;;;;;;2052449;28;20222;-62
2024/02/24 14:11:30;;;;;;;1.38;0.70;;;;;;;;;;2057969;28;20194;-62
2024/02/24 14:12:31;;;;;;;3.28;0.70;;;;;;;;;;2056999;28;20191;-62
2024/02/24 14:13:33;;;;;;;1.20;0.60;;;;;;;;;;2057906;28;20532;-63